PWSweather.com
Personal Weather Stations
Station Observations
KNCCHINA3
Red Tractor Trail, China Grove, NC 28023

Red Tractor TrailChina Grove, NC 28023

Lat: 35.59751, Lon: -80.60201

Elevation: 800

Station Type: Oregon Scientific WMR 968

http://www.joesweathergarage.com

High Low Average
Temperature 37.4°F3.0°F 29.3°F-1.5°F 33.7°F0.9°F
Dew Point 37.4°F3.0°F 16.4°F-8.7°F 30.3°F-0.9°F
Winds 7.6 mph NNE12.2 mph NNE Calm Calm 1.9 mph 3.1 mph
Wind Gusts 8.6 mph13.8 mph -- 3.4 mph5.5 mph
Humidity 100% 52% 89%
Pressure 30.62 in1036.90 in 30.27 in1025.10 in -
Precipitation 0.40 in10.20 in - -
Hour Temp Dew Point Humidity Winds Wind Gusts Pressure Precip Precip Rate Daily Precip Total
12:00 AM 32.2°F0.1°C 16.9°F-8.4°C 53% 3.7 mph NE6.0 kmh NE 8.0 mph12.9 kmh 30.62 in1036.9 mb 0.00 in0.0 mm 0.00 in/hr0.0 mm/hr 0.00 in0.0 mm
12:05 AM 32.2°F0.1°C 17.4°F-8.1°C 54% 2.1 mph ENE3.4 kmh ENE 6.2 mph10.0 kmh 30.62 in1036.9 mb 0.00 in0.0 mm 0.00 in/hr0.0 mm/hr 0.00 in0.0 mm
12:10 AM 32.2°F0.1°C 17.4°F-8.1°C 54% 2.8 mph NE4.5 kmh NE 4.0 mph6.4 kmh 30.62 in1036.9 mb 0.00 in0.0 mm 0.00 in/hr0.0 mm/hr 0.00 in0.0 mm
12:15 AM 32.2°F0.1°C 16.9°F-8.4°C 53% 3.5 mph ENE5.6 kmh ENE 4.0 mph6.4 kmh 30.62 in1036.9 mb 0.00 in0.0 mm 0.00 in/hr0.0 mm/hr 0.00 in0.0 mm
12:20 AM 32.2°F0.1°C 16.9°F-8.4°C 53% 2.7 mph NE4.3 kmh NE 5.0 mph8.0 kmh 30.62 in1036.9 mb 0.00 in0.0 mm 0.00 in/hr0.0 mm/hr 0.00 in0.0 mm
12:25 AM 32.2°F0.1°C 17.4°F-8.1°C 54% 3.8 mph NE6.1 kmh NE 5.8 mph9.3 kmh 30.62 in1036.9 mb 0.00 in0.0 mm 0.00 in/hr0.0 mm/hr 0.00 in0.0 mm
12:30 AM 32.2°F0.1°C 16.9°F-8.4°C 53% 2.4 mph ENE3.9 kmh ENE 5.8 mph9.3 kmh 30.62 in1036.9 mb 0.00 in0.0 mm 0.00 in/hr0.0 mm/hr 0.00 in0.0 mm
12:36 AM 32.2°F0.1°C 16.9°F-8.4°C 53% 3.4 mph NE5.5 kmh NE 5.8 mph9.3 kmh 30.62 in1036.9 mb 0.00 in0.0 mm 0.00 in/hr0.0 mm/hr 0.00 in0.0 mm
12:41 AM 32.2°F0.1°C 16.9°F-8.4°C 53% 2.6 mph NE4.2 kmh NE 5.8 mph9.3 kmh 30.62 in1036.9 mb 0.00 in0.0 mm 0.00 in/hr0.0 mm/hr 0.00 in0.0 mm
12:46 AM 32.2°F0.1°C 16.9°F-8.4°C 53% 2.1 mph ENE3.4 kmh ENE 4.0 mph6.4 kmh 30.62 in1036.9 mb 0.00 in0.0 mm 0.00 in/hr0.0 mm/hr 0.00 in0.0 mm
12:51 AM 32.2°F0.1°C 16.9°F-8.4°C 53% Calm Calm 2.6 mph4.2 kmh 30.62 in1036.9 mb 0.00 in0.0 mm 0.00 in/hr0.0 mm/hr 0.00 in0.0 mm
12:56 AM 32.2°F0.1°C 16.9°F-8.4°C 53% 2.1 mph NE3.4 kmh NE 5.4 mph8.7 kmh 30.62 in1036.9 mb 0.00 in0.0 mm 0.00 in/hr0.0 mm/hr 0.00 in0.0 mm
01:01 AM 32.2°F0.1°C 16.9°F-8.4°C 53% 2.7 mph NE4.3 kmh NE 5.4 mph8.7 kmh 30.59 in1035.9 mb 0.00 in0.0 mm 0.00 in/hr0.0 mm/hr 0.00 in0.0 mm
01:06 AM 32.2°F0.1°C 16.9°F-8.4°C 53% 2.5 mph E4.0 kmh E 4.4 mph7.1 kmh 30.59 in1035.9 mb 0.00 in0.0 mm 0.00 in/hr0.0 mm/hr 0.00 in0.0 mm
01:11 AM 32.2°F0.1°C 16.9°F-8.4°C 53% 3.0 mph NE4.8 kmh NE 5.0 mph8.0 kmh 30.59 in1035.9 mb 0.00 in0.0 mm 0.00 in/hr0.0 mm/hr 0.00 in0.0 mm
01:17 AM 32.2°F0.1°C 16.9°F-8.4°C 53% 2.3 mph ENE3.7 kmh ENE 6.2 mph10.0 kmh 30.59 in1035.9 mb 0.00 in0.0 mm 0.00 in/hr0.0 mm/hr 0.00 in0.0 mm
01:22 AM 32.2°F0.1°C 16.9°F-8.4°C 53% 2.5 mph ENE4.0 kmh ENE 6.2 mph10.0 kmh 30.59 in1035.9 mb 0.00 in0.0 mm 0.00 in/hr0.0 mm/hr 0.00 in0.0 mm
01:28 AM 32.2°F0.1°C 16.9°F-8.4°C 53% Calm Calm 3.2 mph5.1 kmh 30.59 in1035.9 mb 0.00 in0.0 mm 0.00 in/hr0.0 mm/hr 0.00 in0.0 mm
01:33 AM 32.2°F0.1°C 16.9°F-8.4°C 53% Calm Calm 1.8 mph2.9 kmh 30.59 in1035.9 mb 0.00 in0.0 mm 0.00 in/hr0.0 mm/hr 0.00 in0.0 mm
01:38 AM 32.2°F0.1°C 16.9°F-8.4°C 53% 2.4 mph NNE3.9 kmh NNE 3.2 mph5.1 kmh 30.59 in1035.9 mb 0.00 in0.0 mm 0.00 in/hr0.0 mm/hr 0.00 in0.0 mm
01:43 AM 32.2°F0.1°C 16.9°F-8.4°C 53% 4.2 mph NNE6.8 kmh NNE 5.4 mph8.7 kmh 30.59 in1035.9 mb 0.00 in0.0 mm 0.00 in/hr0.0 mm/hr 0.00 in0.0 mm
01:48 AM 32.2°F0.1°C 16.9°F-8.4°C 53% 3.1 mph NE5.0 kmh NE 5.4 mph8.7 kmh 30.59 in1035.9 mb 0.00 in0.0 mm 0.00 in/hr0.0 mm/hr 0.00 in0.0 mm
01:53 AM 32.2°F0.1°C 16.9°F-8.4°C 53% 4.3 mph NE6.9 kmh NE 5.4 mph8.7 kmh 30.59 in1035.9 mb 0.00 in0.0 mm 0.00 in/hr0.0 mm/hr 0.00 in0.0 mm
01:58 AM 32.2°F0.1°C 16.9°F-8.4°C 53% 2.5 mph NE4.0 kmh NE 5.0 mph8.0 kmh 30.59 in1035.9 mb 0.00 in0.0 mm 0.00 in/hr0.0 mm/hr 0.00 in0.0 mm
02:03 AM 32.2°F0.1°C 16.4°F-8.7°C 52% 6.4 mph NNE10.3 kmh NNE 8.0 mph12.9 kmh 30.59 in1035.9 mb 0.00 in0.0 mm 0.00 in/hr0.0 mm/hr 0.00 in0.0 mm
02:08 AM 32.2°F0.1°C 16.9°F-8.4°C 53% 5.4 mph NNE8.7 kmh NNE 8.0 mph12.9 kmh 30.59 in1035.9 mb 0.00 in0.0 mm 0.00 in/hr0.0 mm/hr 0.00 in0.0 mm
02:13 AM 32.2°F0.1°C 16.9°F-8.4°C 53% 4.2 mph NE6.8 kmh NE 7.2 mph11.6 kmh 30.59 in1035.9 mb 0.00 in0.0 mm 0.00 in/hr0.0 mm/hr 0.00 in0.0 mm
02:18 AM 32.2°F0.1°C 16.9°F-8.4°C 53% 3.7 mph NNE6.0 kmh NNE 7.2 mph11.6 kmh 30.56 in1034.9 mb 0.00 in0.0 mm 0.00 in/hr0.0 mm/hr 0.00 in0.0 mm
02:23 AM 32.2°F0.1°C 16.4°F-8.7°C 52% 5.0 mph NE8.0 kmh NE 7.6 mph12.2 kmh 30.56 in1034.9 mb 0.00 in0.0 mm 0.00 in/hr0.0 mm/hr 0.00 in0.0 mm
02:28 AM 32.2°F0.1°C 16.9°F-8.4°C 53% 2.1 mph NE3.4 kmh NE 7.6 mph12.2 kmh 30.56 in1034.9 mb 0.00 in0.0 mm 0.00 in/hr0.0 mm/hr 0.00 in0.0 mm
02:33 AM 32.2°F0.1°C 16.9°F-8.4°C 53% 4.8 mph NE7.7 kmh NE 6.2 mph10.0 kmh 30.59 in1035.9 mb 0.00 in0.0 mm 0.00 in/hr0.0 mm/hr 0.00 in0.0 mm
02:38 AM 32.2°F0.1°C 16.9°F-8.4°C 53% 3.8 mph NNE6.1 kmh NNE 6.2 mph10.0 kmh 30.59 in1035.9 mb 0.00 in0.0 mm 0.00 in/hr0.0 mm/hr 0.00 in0.0 mm
02:43 AM 32.0°F0.0°C 16.7°F-8.5°C 53% 3.1 mph NE5.0 kmh NE 5.4 mph8.7 kmh 30.59 in1035.9 mb 0.00 in0.0 mm 0.00 in/hr0.0 mm/hr 0.00 in0.0 mm
02:48 AM 31.8°F-0.1°C 17.0°F-8.3°C 54% 1.8 mph NE2.9 kmh NE 5.0 mph8.0 kmh 30.59 in1035.9 mb 0.00 in0.0 mm 0.00 in/hr0.0 mm/hr 0.00 in0.0 mm
02:54 AM 31.5°F-0.3°C 16.7°F-8.5°C 54% Calm Calm 2.2 mph3.5 kmh 30.59 in1035.9 mb 0.00 in0.0 mm 0.00 in/hr0.0 mm/hr 0.00 in0.0 mm
02:58 AM 31.5°F-0.3°C 17.2°F-8.2°C 55% Calm Calm -- 30.59 in1035.9 mb 0.00 in0.0 mm 0.00 in/hr0.0 mm/hr 0.00 in0.0 mm
03:04 AM 31.3°F-0.4°C 17.5°F-8.1°C 56% Calm Calm -- 30.56 in1034.9 mb 0.00 in0.0 mm 0.00 in/hr0.0 mm/hr 0.00 in0.0 mm
03:09 AM 31.1°F-0.5°C 17.3°F-8.2°C 56% Calm Calm -- 30.56 in1034.9 mb 0.00 in0.0 mm 0.00 in/hr0.0 mm/hr 0.00 in0.0 mm
03:14 AM 31.1°F-0.5°C 18.6°F-7.4°C 59% Calm Calm -- 30.56 in1034.9 mb 0.00 in0.0 mm 0.00 in/hr0.0 mm/hr 0.00 in0.0 mm
03:19 AM 30.9°F-0.6°C 18.9°F-7.3°C 61% Calm Calm -- 30.56 in1034.9 mb 0.00 in0.0 mm 0.00 in/hr0.0 mm/hr 0.00 in0.0 mm
03:24 AM 30.9°F-0.6°C 18.9°F-7.3°C 61% Calm Calm -- 30.56 in1034.9 mb 0.00 in0.0 mm 0.00 in/hr0.0 mm/hr 0.00 in0.0 mm
03:29 AM 30.9°F-0.6°C 18.9°F-7.3°C 61% Calm Calm -- 30.53 in1033.9 mb 0.00 in0.0 mm 0.00 in/hr0.0 mm/hr 0.00 in0.0 mm
03:34 AM 30.9°F-0.6°C 18.9°F-7.3°C 61% Calm Calm -- 30.53 in1033.9 mb 0.00 in0.0 mm 0.00 in/hr0.0 mm/hr 0.00 in0.0 mm
03:39 AM 30.9°F-0.6°C 19.3°F-7.1°C 62% 2.9 mph NE4.7 kmh NE 4.0 mph6.4 kmh 30.53 in1033.9 mb 0.00 in0.0 mm 0.00 in/hr0.0 mm/hr 0.00 in0.0 mm
03:44 AM 30.7°F-0.7°C 19.1°F-7.2°C 62% Calm Calm 4.0 mph6.4 kmh 30.53 in1033.9 mb 0.00 in0.0 mm 0.00 in/hr0.0 mm/hr 0.00 in0.0 mm
03:49 AM 30.7°F-0.7°C 19.1°F-7.2°C 62% Calm Calm -- 30.53 in1033.9 mb 0.00 in0.0 mm 0.00 in/hr0.0 mm/hr 0.00 in0.0 mm
03:54 AM 30.7°F-0.7°C 19.5°F-6.9°C 63% Calm Calm -- 30.53 in1033.9 mb 0.00 in0.0 mm 0.00 in/hr0.0 mm/hr 0.00 in0.0 mm
04:00 AM 30.7°F-0.7°C 19.5°F-6.9°C 63% 4.0 mph NE6.4 kmh NE 6.2 mph10.0 kmh 30.53 in1033.9 mb 0.00 in0.0 mm 0.00 in/hr0.0 mm/hr 0.00 in0.0 mm
04:05 AM 30.7°F-0.7°C 19.9°F-6.7°C 64% 3.8 mph NE6.1 kmh NE 6.2 mph10.0 kmh 30.53 in1033.9 mb 0.00 in0.0 mm 0.00 in/hr0.0 mm/hr 0.00 in0.0 mm
04:10 AM 30.7°F-0.7°C 19.9°F-6.7°C 64% Calm Calm 5.0 mph8.0 kmh 30.53 in1033.9 mb 0.00 in0.0 mm 0.00 in/hr0.0 mm/hr 0.00 in0.0 mm
04:15 AM 30.7°F-0.7°C 19.9°F-6.7°C 64% 2.1 mph NNE3.4 kmh NNE 5.0 mph8.0 kmh 30.53 in1033.9 mb 0.00 in0.0 mm 0.00 in/hr0.0 mm/hr 0.00 in0.0 mm
04:21 AM 30.7°F-0.7°C 20.4°F-6.4°C 65% 2.8 mph 4.5 kmh 4.0 mph6.4 kmh 30.53 in1033.9 mb 0.00 in0.0 mm 0.00 in/hr0.0 mm/hr 0.00 in0.0 mm
04:26 AM 30.9°F-0.6°C 20.9°F-6.2°C 66% 2.0 mph NNE3.2 kmh NNE 4.0 mph6.4 kmh 30.53 in1033.9 mb 0.00 in0.0 mm 0.00 in/hr0.0 mm/hr 0.00 in0.0 mm
04:31 AM 30.7°F-0.7°C 21.5°F-5.8°C 68% 5.3 mph NNE8.5 kmh NNE 6.8 mph10.9 kmh 30.56 in1034.9 mb 0.00 in0.0 mm 0.00 in/hr0.0 mm/hr 0.00 in0.0 mm
04:36 AM 30.7°F-0.7°C 21.5°F-5.8°C 68% 3.5 mph NE5.6 kmh NE 6.8 mph10.9 kmh 30.56 in1034.9 mb 0.00 in0.0 mm 0.00 in/hr0.0 mm/hr 0.00 in0.0 mm
04:41 AM 30.6°F-0.8°C 22.2°F-5.4°C 70% 4.6 mph NNE7.4 kmh NNE 6.8 mph10.9 kmh 30.56 in1034.9 mb 0.00 in0.0 mm 0.00 in/hr0.0 mm/hr 0.00 in0.0 mm
04:46 AM 30.4°F-0.9°C 23.1°F-4.9°C 74% 5.2 mph NNE8.4 kmh NNE 6.8 mph10.9 kmh 30.53 in1033.9 mb 0.00 in0.0 mm 0.00 in/hr0.0 mm/hr 0.00 in0.0 mm
04:51 AM 30.4°F-0.9°C 23.7°F-4.6°C 76% 5.6 mph NNE9.0 kmh NNE 7.6 mph12.2 kmh 30.53 in1033.9 mb 0.00 in0.0 mm 0.00 in/hr0.0 mm/hr 0.00 in0.0 mm
04:56 AM 30.2°F-1.0°C 23.5°F-4.7°C 76% 3.7 mph NE6.0 kmh NE 7.6 mph12.2 kmh 30.53 in1033.9 mb 0.00 in0.0 mm 0.00 in/hr0.0 mm/hr 0.00 in0.0 mm
05:01 AM 30.2°F-1.0°C 24.2°F-4.3°C 78% 4.1 mph NE6.6 kmh NE 7.6 mph12.2 kmh 30.56 in1034.9 mb 0.00 in0.0 mm 0.00 in/hr0.0 mm/hr 0.00 in0.0 mm
05:06 AM 30.2°F-1.0°C 23.9°F-4.5°C 77% 3.0 mph NE4.8 kmh NE 6.8 mph10.9 kmh 30.56 in1034.9 mb 0.00 in0.0 mm 0.00 in/hr0.0 mm/hr 0.00 in0.0 mm
05:11 AM 30.2°F-1.0°C 23.9°F-4.5°C 77% 2.8 mph NE4.5 kmh NE 6.8 mph10.9 kmh 30.56 in1034.9 mb 0.00 in0.0 mm 0.00 in/hr0.0 mm/hr 0.00 in0.0 mm
05:16 AM 30.0°F-1.1°C 23.7°F-4.6°C 77% 3.4 mph NNE5.5 kmh NNE 5.8 mph9.3 kmh 30.56 in1034.9 mb 0.00 in0.0 mm 0.00 in/hr0.0 mm/hr 0.00 in0.0 mm
05:21 AM 30.0°F-1.1°C 24.3°F-4.3°C 79% 4.8 mph NNE7.7 kmh NNE 6.8 mph10.9 kmh 30.56 in1034.9 mb 0.00 in0.0 mm 0.00 in/hr0.0 mm/hr 0.00 in0.0 mm
05:26 AM 30.0°F-1.1°C 24.3°F-4.3°C 79% 4.7 mph NE7.6 kmh NE 6.8 mph10.9 kmh 30.56 in1034.9 mb 0.00 in0.0 mm 0.00 in/hr0.0 mm/hr 0.00 in0.0 mm
05:31 AM 30.0°F-1.1°C 24.0°F-4.4°C 78% 2.9 mph NE4.7 kmh NE 6.2 mph10.0 kmh 30.56 in1034.9 mb 0.00 in0.0 mm 0.00 in/hr0.0 mm/hr 0.00 in0.0 mm
05:36 AM 30.0°F-1.1°C 24.0°F-4.4°C 78% 3.6 mph NE5.8 kmh NE 5.4 mph8.7 kmh 30.56 in1034.9 mb 0.00 in0.0 mm 0.00 in/hr0.0 mm/hr 0.00 in0.0 mm
05:41 AM 30.0°F-1.1°C 24.0°F-4.4°C 78% 2.9 mph N4.7 kmh N 5.4 mph8.7 kmh 30.56 in1034.9 mb 0.00 in0.0 mm 0.00 in/hr0.0 mm/hr 0.00 in0.0 mm
05:46 AM 30.0°F-1.1°C 23.7°F-4.6°C 77% 1.8 mph N2.9 kmh N 3.2 mph5.1 kmh 30.59 in1035.9 mb 0.00 in0.0 mm 0.00 in/hr0.0 mm/hr 0.00 in0.0 mm
05:52 AM 30.2°F-1.0°C 23.9°F-4.5°C 77% 2.7 mph NE4.3 kmh NE 3.2 mph5.1 kmh 30.59 in1035.9 mb 0.00 in0.0 mm 0.00 in/hr0.0 mm/hr 0.00 in0.0 mm
05:57 AM 30.2°F-1.0°C 23.9°F-4.5°C 77% 3.8 mph NE6.1 kmh NE 4.0 mph6.4 kmh 30.59 in1035.9 mb 0.00 in0.0 mm 0.00 in/hr0.0 mm/hr 0.00 in0.0 mm
06:02 AM 30.2°F-1.0°C 24.5°F-4.2°C 79% 2.4 mph NE3.9 kmh NE 5.4 mph8.7 kmh 30.56 in1034.9 mb 0.00 in0.0 mm 0.00 in/hr0.0 mm/hr 0.00 in0.0 mm
06:07 AM 30.0°F-1.1°C 24.7°F-4.1°C 80% 2.6 mph N4.2 kmh N 5.4 mph8.7 kmh 30.56 in1034.9 mb 0.00 in0.0 mm 0.00 in/hr0.0 mm/hr 0.00 in0.0 mm
06:13 AM 30.0°F-1.1°C 24.7°F-4.1°C 80% 3.5 mph NNE5.6 kmh NNE 6.2 mph10.0 kmh 30.56 in1034.9 mb 0.00 in0.0 mm 0.00 in/hr0.0 mm/hr 0.00 in0.0 mm
06:18 AM 30.0°F-1.1°C 24.7°F-4.1°C 80% 1.8 mph NE2.9 kmh NE 6.2 mph10.0 kmh 30.59 in1035.9 mb 0.00 in0.0 mm 0.00 in/hr0.0 mm/hr 0.00 in0.0 mm
06:23 AM 30.0°F-1.1°C 24.7°F-4.1°C 80% Calm Calm 5.0 mph8.0 kmh 30.59 in1035.9 mb 0.00 in0.0 mm 0.00 in/hr0.0 mm/hr 0.00 in0.0 mm
06:28 AM 30.0°F-1.1°C 24.7°F-4.1°C 80% 2.6 mph NNE4.2 kmh NNE 2.6 mph4.2 kmh 30.59 in1035.9 mb 0.00 in0.0 mm 0.00 in/hr0.0 mm/hr 0.00 in0.0 mm
06:34 AM 29.8°F-1.2°C 24.5°F-4.2°C 80% 2.6 mph NNE4.2 kmh NNE 4.4 mph7.1 kmh 30.59 in1035.9 mb 0.00 in0.0 mm 0.00 in/hr0.0 mm/hr 0.00 in0.0 mm
06:39 AM 29.8°F-1.2°C 24.5°F-4.2°C 80% Calm Calm 4.4 mph7.1 kmh 30.59 in1035.9 mb 0.00 in0.0 mm 0.00 in/hr0.0 mm/hr 0.00 in0.0 mm
06:44 AM 29.8°F-1.2°C 24.8°F-4.0°C 81% 2.2 mph NE3.5 kmh NE 2.6 mph4.2 kmh 30.59 in1035.9 mb 0.00 in0.0 mm 0.00 in/hr0.0 mm/hr 0.00 in0.0 mm
06:49 AM 29.7°F-1.3°C 25.6°F-3.6°C 85% Calm Calm 2.2 mph3.5 kmh 30.56 in1034.9 mb 0.00 in0.0 mm 0.00 in/hr0.0 mm/hr 0.00 in0.0 mm
06:55 AM 29.7°F-1.3°C 26.2°F-3.2°C 87% Calm Calm 2.2 mph3.5 kmh 30.56 in1034.9 mb 0.00 in0.0 mm 0.00 in/hr0.0 mm/hr 0.00 in0.0 mm
07:00 AM 29.5°F-1.4°C 26.6°F-3.0°C 89% Calm Calm -- 30.59 in1035.9 mb 0.00 in0.0 mm 0.00 in/hr0.0 mm/hr 0.00 in0.0 mm
07:05 AM 29.5°F-1.4°C 27.5°F-2.5°C 92% Calm Calm -- 30.59 in1035.9 mb 0.00 in0.0 mm 0.00 in/hr0.0 mm/hr 0.00 in0.0 mm
07:10 AM 29.3°F-1.5°C 27.6°F-2.4°C 94% 7.4 mph NE11.9 kmh NE 8.0 mph12.9 kmh 30.59 in1035.9 mb 0.00 in0.0 mm 0.00 in/hr0.0 mm/hr 0.00 in0.0 mm
07:15 AM 29.3°F-1.5°C 27.3°F-2.6°C 92% 6.9 mph NE11.1 kmh NE 8.6 mph13.8 kmh 30.56 in1034.9 mb 0.00 in0.0 mm 0.00 in/hr0.0 mm/hr 0.00 in0.0 mm
07:20 AM 29.3°F-1.5°C 27.3°F-2.6°C 92% 5.0 mph NE8.0 kmh NE 8.6 mph13.8 kmh 30.56 in1034.9 mb 0.00 in0.0 mm 0.00 in/hr0.0 mm/hr 0.00 in0.0 mm
07:25 AM 29.3°F-1.5°C 27.6°F-2.4°C 94% 4.8 mph NNE7.7 kmh NNE 8.6 mph13.8 kmh 30.56 in1034.9 mb 0.00 in0.0 mm 0.00 in/hr0.0 mm/hr 0.00 in0.0 mm
07:30 AM 29.3°F-1.5°C 27.9°F-2.3°C 95% 6.6 mph NNE10.6 kmh NNE 8.6 mph13.8 kmh 30.59 in1035.9 mb 0.00 in0.0 mm 0.00 in/hr0.0 mm/hr 0.00 in0.0 mm
07:35 AM 29.5°F-1.4°C 28.4°F-2.0°C 96% 5.4 mph NNE8.7 kmh NNE 7.2 mph11.6 kmh 30.59 in1035.9 mb 0.00 in0.0 mm 0.00 in/hr0.0 mm/hr 0.00 in0.0 mm
07:40 AM 29.5°F-1.4°C 28.4°F-2.0°C 96% 6.4 mph NE10.3 kmh NE 7.2 mph11.6 kmh 30.59 in1035.9 mb 0.00 in0.0 mm 0.00 in/hr0.0 mm/hr 0.00 in0.0 mm
07:45 AM 29.5°F-1.4°C 29.0°F-1.7°C 98% 7.6 mph NNE12.2 kmh NNE 7.6 mph12.2 kmh 30.56 in1034.9 mb 0.00 in0.0 mm 0.00 in/hr0.0 mm/hr 0.00 in0.0 mm
07:50 AM 29.5°F-1.4°C 29.0°F-1.7°C 98% 7.6 mph NNE12.2 kmh NNE 7.6 mph12.2 kmh 30.56 in1034.9 mb 0.00 in0.0 mm 0.00 in/hr0.0 mm/hr 0.00 in0.0 mm
07:57 AM 29.5°F-1.4°C 29.0°F-1.7°C 98% 7.6 mph NNE12.2 kmh NNE 7.6 mph12.2 kmh 30.56 in1034.9 mb 0.00 in0.0 mm 0.00 in/hr0.0 mm/hr 0.00 in0.0 mm
08:03 AM 29.5°F-1.4°C 29.0°F-1.7°C 98% 7.6 mph NNE12.2 kmh NNE 7.6 mph12.2 kmh 30.53 in1033.9 mb 0.00 in0.0 mm 0.00 in/hr0.0 mm/hr 0.00 in0.0 mm
08:08 AM 29.5°F-1.4°C 29.0°F-1.7°C 98% 7.6 mph NNE12.2 kmh NNE 7.6 mph12.2 kmh 30.53 in1033.9 mb 0.00 in0.0 mm 0.00 in/hr0.0 mm/hr 0.00 in0.0 mm
08:13 AM 29.8°F-1.2°C 29.0°F-1.7°C 97% 2.2 mph ENE3.5 kmh ENE 7.6 mph12.2 kmh 30.53 in1033.9 mb 0.00 in0.0 mm 0.00 in/hr0.0 mm/hr 0.00 in0.0 mm
08:18 AM 30.2°F-1.0°C 29.1°F-1.6°C 96% 2.2 mph ENE3.5 kmh ENE 7.6 mph12.2 kmh 30.53 in1033.9 mb 0.00 in0.0 mm 0.00 in/hr0.0 mm/hr 0.00 in0.0 mm
08:23 AM 30.6°F-0.8°C 29.8°F-1.2°C 97% 2.2 mph ENE3.5 kmh ENE 2.2 mph3.5 kmh 30.53 in1033.9 mb 0.00 in0.0 mm 0.00 in/hr0.0 mm/hr 0.00 in0.0 mm
08:29 AM 30.6°F-0.8°C 29.8°F-1.2°C 97% 2.2 mph ENE3.5 kmh ENE 2.2 mph3.5 kmh 30.53 in1033.9 mb 0.00 in0.0 mm 0.00 in/hr0.0 mm/hr 0.00 in0.0 mm
08:34 AM 30.7°F-0.7°C 29.6°F-1.3°C 96% 2.2 mph ENE3.5 kmh ENE 2.2 mph3.5 kmh 30.53 in1033.9 mb 0.00 in0.0 mm 0.00 in/hr0.0 mm/hr 0.00 in0.0 mm
08:39 AM 30.9°F-0.6°C 30.1°F-1.1°C 97% 2.2 mph ENE3.5 kmh ENE 2.2 mph3.5 kmh 30.53 in1033.9 mb 0.00 in0.0 mm 0.00 in/hr0.0 mm/hr 0.00 in0.0 mm
08:44 AM 31.5°F-0.3°C 30.7°F-0.7°C 97% 2.8 mph E4.5 kmh E 3.2 mph5.1 kmh 30.53 in1033.9 mb 0.00 in0.0 mm 0.00 in/hr0.0 mm/hr 0.00 in0.0 mm
08:49 AM 31.6°F-0.2°C 30.8°F-0.7°C 97% 2.6 mph E4.2 kmh E 3.2 mph5.1 kmh 30.53 in1033.9 mb 0.00 in0.0 mm 0.00 in/hr0.0 mm/hr 0.00 in0.0 mm
08:54 AM 31.3°F-0.4°C 30.5°F-0.8°C 97% Calm Calm 2.6 mph4.2 kmh 30.53 in1033.9 mb 0.00 in0.0 mm 0.00 in/hr0.0 mm/hr 0.00 in0.0 mm
08:59 AM 31.1°F-0.5°C 30.3°F-0.9°C 97% 2.8 mph NE4.5 kmh NE 4.0 mph6.4 kmh 30.53 in1033.9 mb 0.00 in0.0 mm 0.00 in/hr0.0 mm/hr 0.00 in0.0 mm
09:04 AM 30.9°F-0.6°C 30.1°F-1.1°C 97% 5.0 mph NNE8.0 kmh NNE 5.4 mph8.7 kmh 30.50 in1032.8 mb 0.00 in0.0 mm 0.00 in/hr0.0 mm/hr 0.00 in0.0 mm
09:09 AM 30.9°F-0.6°C 30.4°F-0.9°C 98% 5.0 mph NNE8.0 kmh NNE 5.4 mph8.7 kmh 30.50 in1032.8 mb 0.00 in0.0 mm 0.00 in/hr0.0 mm/hr 0.00 in0.0 mm
09:14 AM 31.1°F-0.5°C 30.6°F-0.8°C 98% 4.1 mph NNE6.6 kmh NNE 5.0 mph8.0 kmh 30.50 in1032.8 mb 0.00 in0.0 mm 0.00 in/hr0.0 mm/hr 0.00 in0.0 mm
09:20 AM 30.9°F-0.6°C 30.4°F-0.9°C 98% 3.2 mph NE5.1 kmh NE 5.0 mph8.0 kmh 30.53 in1033.9 mb 0.00 in0.0 mm 0.00 in/hr0.0 mm/hr 0.00 in0.0 mm
09:25 AM 30.7°F-0.7°C 30.2°F-1.0°C 98% Calm Calm 3.2 mph5.1 kmh 30.53 in1033.9 mb 0.00 in0.0 mm 0.00 in/hr0.0 mm/hr 0.00 in0.0 mm
09:30 AM 30.7°F-0.7°C 30.4°F-0.9°C 99% Calm Calm -- 30.50 in1032.8 mb 0.00 in0.0 mm 0.00 in/hr0.0 mm/hr 0.00 in0.0 mm
09:35 AM 30.9°F-0.6°C 30.6°F-0.8°C 99% 4.2 mph 6.8 kmh 5.0 mph8.0 kmh 30.50 in1032.8 mb 0.00 in0.0 mm 0.00 in/hr0.0 mm/hr 0.00 in0.0 mm
09:40 AM 30.9°F-0.6°C 30.6°F-0.8°C 99% 3.8 mph N6.1 kmh N 5.0 mph8.0 kmh 30.50 in1032.8 mb 0.00 in0.0 mm 0.00 in/hr0.0 mm/hr 0.00 in0.0 mm
09:45 AM 31.1°F-0.5°C 30.6°F-0.8°C 98% 2.9 mph N4.7 kmh N 5.0 mph8.0 kmh 30.56 in1034.9 mb 0.00 in0.0 mm 0.00 in/hr0.0 mm/hr 0.00 in0.0 mm
09:50 AM 31.1°F-0.5°C 30.6°F-0.8°C 98% Calm Calm 4.0 mph6.4 kmh 30.56 in1034.9 mb 0.00 in0.0 mm 0.00 in/hr0.0 mm/hr 0.00 in0.0 mm
09:55 AM 31.3°F-0.4°C 31.0°F-0.6°C 99% Calm Calm 3.2 mph5.1 kmh 30.56 in1034.9 mb 0.00 in0.0 mm 0.00 in/hr0.0 mm/hr 0.00 in0.0 mm
10:01 AM 31.3°F-0.4°C 31.3°F-0.4°C 100% Calm Calm -- 30.53 in1033.9 mb 0.00 in0.0 mm 0.00 in/hr0.0 mm/hr 0.00 in0.0 mm
10:06 AM 31.3°F-0.4°C 31.3°F-0.4°C 100% Calm Calm -- 30.53 in1033.9 mb 0.00 in0.0 mm 0.00 in/hr0.0 mm/hr 0.00 in0.0 mm
10:11 AM 31.5°F-0.3°C 31.5°F-0.3°C 100% 3.5 mph NE5.6 kmh NE 5.0 mph8.0 kmh 30.53 in1033.9 mb 0.00 in0.0 mm 0.00 in/hr0.0 mm/hr 0.00 in0.0 mm
10:16 AM 31.5°F-0.3°C 31.5°F-0.3°C 100% Calm Calm 5.0 mph8.0 kmh 30.53 in1033.9 mb 0.00 in0.0 mm 0.00 in/hr0.0 mm/hr 0.00 in0.0 mm
10:22 AM 31.5°F-0.3°C 31.5°F-0.3°C 100% Calm Calm -- 30.53 in1033.9 mb 0.04 in1.0 mm 0.40 in/hr10.2 mm/hr 0.05 in1.3 mm
10:27 AM 31.6°F-0.2°C 31.6°F-0.2°C 100% Calm Calm -- 30.53 in1033.9 mb 0.04 in1.0 mm 0.00 in/hr0.0 mm/hr 0.05 in1.3 mm
10:33 AM 32.0°F0.0°C 32.0°F0.0°C 100% Calm Calm -- 30.53 in1033.9 mb 0.04 in1.0 mm 0.00 in/hr0.0 mm/hr 0.05 in1.3 mm
10:38 AM 32.0°F0.0°C 32.0°F0.0°C 100% 1.8 mph ENE2.9 kmh ENE 1.8 mph2.9 kmh 30.53 in1033.9 mb 0.04 in1.0 mm 0.00 in/hr0.0 mm/hr 0.05 in1.3 mm
10:46 AM 32.2°F0.1°C 32.2°F0.1°C 100% 2.1 mph NE3.4 kmh NE 2.2 mph3.5 kmh 30.50 in1032.8 mb 0.04 in1.0 mm 0.00 in/hr0.0 mm/hr 0.05 in1.3 mm
10:51 AM 32.2°F0.1°C 32.2°F0.1°C 100% 2.2 mph NE3.5 kmh NE 2.2 mph3.5 kmh 30.50 in1032.8 mb 0.04 in1.0 mm 0.00 in/hr0.0 mm/hr 0.05 in1.3 mm
10:56 AM 32.4°F0.2°C 32.4°F0.2°C 100% 2.6 mph ENE4.2 kmh ENE 3.2 mph5.1 kmh 30.50 in1032.8 mb 0.04 in1.0 mm 0.00 in/hr0.0 mm/hr 0.05 in1.3 mm
11:01 AM 32.4°F0.2°C 32.4°F0.2°C 100% 2.6 mph ENE4.2 kmh ENE 2.6 mph4.2 kmh 30.50 in1032.8 mb 0.04 in1.0 mm 0.00 in/hr0.0 mm/hr 0.05 in1.3 mm
11:06 AM 32.7°F0.4°C 32.7°F0.4°C 100% 2.2 mph ENE3.5 kmh ENE 2.6 mph4.2 kmh 30.50 in1032.8 mb 0.04 in1.0 mm 0.00 in/hr0.0 mm/hr 0.05 in1.3 mm
11:11 AM 32.9°F0.5°C 32.9°F0.5°C 100% Calm Calm 2.6 mph4.2 kmh 30.50 in1032.8 mb 0.04 in1.0 mm 0.00 in/hr0.0 mm/hr 0.05 in1.3 mm
11:16 AM 33.1°F0.6°C 33.1°F0.6°C 100% 2.3 mph NE3.7 kmh NE 2.6 mph4.2 kmh 30.50 in1032.8 mb 0.00 in0.0 mm 0.00 in/hr0.0 mm/hr 0.05 in1.3 mm
11:21 AM 33.4°F0.8°C 33.4°F0.8°C 100% Calm Calm 2.6 mph4.2 kmh 30.50 in1032.8 mb 0.00 in0.0 mm 0.00 in/hr0.0 mm/hr 0.05 in1.3 mm
11:26 AM 34.0°F1.1°C 34.0°F1.1°C 100% 2.6 mph E4.2 kmh E 2.6 mph4.2 kmh 30.50 in1032.8 mb 0.00 in0.0 mm 0.00 in/hr0.0 mm/hr 0.05 in1.3 mm
11:31 AM 34.5°F1.4°C 34.5°F1.4°C 100% Calm Calm 2.6 mph4.2 kmh 30.47 in1031.8 mb 0.00 in0.0 mm 0.00 in/hr0.0 mm/hr 0.05 in1.3 mm
11:37 AM 34.3°F1.3°C 34.3°F1.3°C 100% 5.0 mph ENE8.0 kmh ENE 5.0 mph8.0 kmh 30.47 in1031.8 mb 0.00 in0.0 mm 0.00 in/hr0.0 mm/hr 0.05 in1.3 mm
11:42 AM 34.3°F1.3°C 34.3°F1.3°C 100% Calm Calm 5.0 mph8.0 kmh 30.47 in1031.8 mb 0.00 in0.0 mm 0.00 in/hr0.0 mm/hr 0.05 in1.3 mm
11:47 AM 34.3°F1.3°C 34.0°F1.1°C 99% Calm Calm 5.0 mph8.0 kmh 30.50 in1032.8 mb 0.00 in0.0 mm 0.00 in/hr0.0 mm/hr 0.05 in1.3 mm
11:52 AM 34.5°F1.4°C 34.2°F1.2°C 99% Calm Calm -- 30.50 in1032.8 mb 0.00 in0.0 mm 0.00 in/hr0.0 mm/hr 0.05 in1.3 mm
11:58 AM 34.5°F1.4°C 34.2°F1.2°C 99% Calm Calm -- 30.50 in1032.8 mb 0.00 in0.0 mm 0.00 in/hr0.0 mm/hr 0.05 in1.3 mm
12:03 PM 34.5°F1.4°C 34.2°F1.2°C 99% Calm Calm -- 30.47 in1031.8 mb 0.00 in0.0 mm 0.00 in/hr0.0 mm/hr 0.05 in1.3 mm
12:09 PM 34.5°F1.4°C 34.2°F1.2°C 99% 5.0 mph NNE8.0 kmh NNE 5.0 mph8.0 kmh 30.47 in1031.8 mb 0.00 in0.0 mm 0.00 in/hr0.0 mm/hr 0.05 in1.3 mm
12:14 PM 34.5°F1.4°C 34.2°F1.2°C 99% Calm Calm 7.2 mph11.6 kmh 30.47 in1031.8 mb 0.00 in0.0 mm 0.00 in/hr0.0 mm/hr 0.05 in1.3 mm
12:19 PM 34.7°F1.5°C 34.4°F1.3°C 99% 4.0 mph N6.4 kmh N 7.2 mph11.6 kmh 30.47 in1031.8 mb 0.00 in0.0 mm 0.00 in/hr0.0 mm/hr 0.05 in1.3 mm
12:24 PM 34.7°F1.5°C 34.7°F1.5°C 100% Calm Calm 5.4 mph8.7 kmh 30.47 in1031.8 mb 0.00 in0.0 mm 0.00 in/hr0.0 mm/hr 0.05 in1.3 mm
12:30 PM 34.5°F1.4°C 34.5°F1.4°C 100% 3.5 mph NNE5.6 kmh NNE 4.0 mph6.4 kmh 30.45 in1031.2 mb 0.00 in0.0 mm 0.00 in/hr0.0 mm/hr 0.05 in1.3 mm
12:35 PM 34.7°F1.5°C 34.7°F1.5°C 100% Calm Calm 4.0 mph6.4 kmh 30.45 in1031.2 mb 0.00 in0.0 mm 0.00 in/hr0.0 mm/hr 0.05 in1.3 mm
12:40 PM 34.9°F1.6°C 34.9°F1.6°C 100% 2.7 mph NNE4.3 kmh NNE 4.0 mph6.4 kmh 30.45 in1031.2 mb 0.00 in0.0 mm 0.00 in/hr0.0 mm/hr 0.05 in1.3 mm
12:45 PM 35.1°F1.7°C 35.1°F1.7°C 100% 3.5 mph NE5.6 kmh NE 7.2 mph11.6 kmh 30.47 in1031.8 mb 0.00 in0.0 mm 0.00 in/hr0.0 mm/hr 0.05 in1.3 mm
12:50 PM 35.1°F1.7°C 35.1°F1.7°C 100% 3.5 mph NNE5.6 kmh NNE 7.2 mph11.6 kmh 30.47 in1031.8 mb 0.00 in0.0 mm 0.00 in/hr0.0 mm/hr 0.05 in1.3 mm
12:55 PM 35.2°F1.8°C 35.2°F1.8°C 100% 5.8 mph NNE9.3 kmh NNE 7.2 mph11.6 kmh 30.47 in1031.8 mb 0.00 in0.0 mm 0.00 in/hr0.0 mm/hr 0.05 in1.3 mm
01:00 PM 35.1°F1.7°C 35.1°F1.7°C 100% 5.8 mph NNE9.3 kmh NNE 6.8 mph10.9 kmh 30.45 in1031.2 mb 0.00 in0.0 mm 0.00 in/hr0.0 mm/hr 0.05 in1.3 mm
01:05 PM 35.1°F1.7°C 35.1°F1.7°C 100% 5.5 mph N8.9 kmh N 6.2 mph10.0 kmh 30.45 in1031.2 mb 0.00 in0.0 mm 0.00 in/hr0.0 mm/hr 0.05 in1.3 mm
01:10 PM 35.2°F1.8°C 35.2°F1.8°C 100% 3.9 mph NE6.3 kmh NE 6.2 mph10.0 kmh 30.45 in1031.2 mb 0.00 in0.0 mm 0.00 in/hr0.0 mm/hr 0.05 in1.3 mm
01:15 PM 35.4°F1.9°C 35.4°F1.9°C 100% 3.2 mph NE5.1 kmh NE 6.2 mph10.0 kmh 30.45 in1031.2 mb 0.00 in0.0 mm 0.00 in/hr0.0 mm/hr 0.05 in1.3 mm
01:21 PM 35.8°F2.1°C 35.8°F2.1°C 100% 1.8 mph NE2.9 kmh NE 5.4 mph8.7 kmh 30.45 in1031.2 mb 0.00 in0.0 mm 0.00 in/hr0.0 mm/hr 0.05 in1.3 mm
01:26 PM 36.0°F2.2°C 36.0°F2.2°C 100% 3.4 mph NE5.5 kmh NE 5.0 mph8.0 kmh 30.45 in1031.2 mb 0.00 in0.0 mm 0.00 in/hr0.0 mm/hr 0.05 in1.3 mm
01:32 PM 36.0°F2.2°C 36.0°F2.2°C 100% 4.0 mph NNE6.4 kmh NNE 5.4 mph8.7 kmh 30.42 in1030.1 mb 0.00 in0.0 mm 0.00 in/hr0.0 mm/hr 0.05 in1.3 mm
01:37 PM 35.6°F2.0°C 35.6°F2.0°C 100% 4.0 mph NNE6.4 kmh NNE 5.4 mph8.7 kmh 30.42 in1030.1 mb 0.00 in0.0 mm 0.00 in/hr0.0 mm/hr 0.05 in1.3 mm
01:43 PM 35.4°F1.9°C 35.4°F1.9°C 100% 6.5 mph NNE10.5 kmh NNE 7.6 mph12.2 kmh 30.42 in1030.1 mb 0.00 in0.0 mm 0.00 in/hr0.0 mm/hr 0.05 in1.3 mm
01:48 PM 35.8°F2.1°C 35.8°F2.1°C 100% 5.0 mph NNE8.0 kmh NNE 7.6 mph12.2 kmh 30.39 in1029.1 mb 0.00 in0.0 mm 0.00 in/hr0.0 mm/hr 0.05 in1.3 mm
01:54 PM 35.6°F2.0°C 35.6°F2.0°C 100% 5.2 mph N8.4 kmh N 6.8 mph10.9 kmh 30.39 in1029.1 mb 0.00 in0.0 mm 0.00 in/hr0.0 mm/hr 0.05 in1.3 mm
01:59 PM 35.8°F2.1°C 35.8°F2.1°C 100% 6.2 mph NNE10.0 kmh NNE 7.2 mph11.6 kmh 30.42 in1030.1 mb 0.00 in0.0 mm 0.00 in/hr0.0 mm/hr 0.05 in1.3 mm
02:04 PM 35.6°F2.0°C 35.6°F2.0°C 100% 5.2 mph N8.4 kmh N 7.2 mph11.6 kmh 30.42 in1030.1 mb 0.00 in0.0 mm 0.00 in/hr0.0 mm/hr 0.05 in1.3 mm
02:09 PM 35.6°F2.0°C 35.6°F2.0°C 100% 3.6 mph NNE5.8 kmh NNE 6.8 mph10.9 kmh 30.42 in1030.1 mb 0.00 in0.0 mm 0.00 in/hr0.0 mm/hr 0.05 in1.3 mm
02:14 PM 35.6°F2.0°C 35.6°F2.0°C 100% 5.0 mph NE8.0 kmh NE 6.8 mph10.9 kmh 30.42 in1030.1 mb 0.00 in0.0 mm 0.00 in/hr0.0 mm/hr 0.05 in1.3 mm
02:19 PM 35.8°F2.1°C 35.8°F2.1°C 100% 1.8 mph NNE2.9 kmh NNE 5.8 mph9.3 kmh 30.42 in1030.1 mb 0.00 in0.0 mm 0.00 in/hr0.0 mm/hr 0.05 in1.3 mm
02:24 PM 36.0°F2.2°C 36.0°F2.2°C 100% 2.2 mph ENE3.5 kmh ENE 5.8 mph9.3 kmh 30.42 in1030.1 mb 0.00 in0.0 mm 0.00 in/hr0.0 mm/hr 0.05 in1.3 mm
02:29 PM 36.1°F2.3°C 36.1°F2.3°C 100% 2.2 mph ENE3.5 kmh ENE 2.6 mph4.2 kmh 30.39 in1029.1 mb 0.00 in0.0 mm 0.00 in/hr0.0 mm/hr 0.05 in1.3 mm
02:35 PM 36.3°F2.4°C 36.3°F2.4°C 100% 2.4 mph ESE3.9 kmh ESE 2.6 mph4.2 kmh 30.39 in1029.1 mb 0.00 in0.0 mm 0.00 in/hr0.0 mm/hr 0.05 in1.3 mm
02:40 PM 36.5°F2.5°C 36.5°F2.5°C 100% Calm Calm 4.0 mph6.4 kmh 30.39 in1029.1 mb 0.00 in0.0 mm 0.00 in/hr0.0 mm/hr 0.05 in1.3 mm
02:45 PM 36.5°F2.5°C 36.5°F2.5°C 100% 1.8 mph ENE2.9 kmh ENE 4.0 mph6.4 kmh 30.39 in1029.1 mb 0.00 in0.0 mm 0.00 in/hr0.0 mm/hr 0.05 in1.3 mm
02:50 PM 36.3°F2.4°C 36.3°F2.4°C 100% 2.4 mph NE3.9 kmh NE 4.0 mph6.4 kmh 30.39 in1029.1 mb 0.00 in0.0 mm 0.00 in/hr0.0 mm/hr 0.05 in1.3 mm
02:55 PM 36.3°F2.4°C 36.3°F2.4°C 100% 3.4 mph NE5.5 kmh NE 5.4 mph8.7 kmh 30.39 in1029.1 mb 0.00 in0.0 mm 0.00 in/hr0.0 mm/hr 0.05 in1.3 mm
03:00 PM 36.3°F2.4°C 36.3°F2.4°C 100% 3.8 mph NNE6.1 kmh NNE 5.4 mph8.7 kmh 30.39 in1029.1 mb 0.00 in0.0 mm 0.00 in/hr0.0 mm/hr 0.05 in1.3 mm
03:05 PM 36.3°F2.4°C 36.3°F2.4°C 100% 2.1 mph NNE3.4 kmh NNE 5.4 mph8.7 kmh 30.39 in1029.1 mb 0.00 in0.0 mm 0.00 in/hr0.0 mm/hr 0.05 in1.3 mm
03:10 PM 36.5°F2.5°C 36.5°F2.5°C 100% 3.0 mph NE4.8 kmh NE 4.4 mph7.1 kmh 30.39 in1029.1 mb 0.00 in0.0 mm 0.00 in/hr0.0 mm/hr 0.05 in1.3 mm
03:16 PM 36.5°F2.5°C 36.5°F2.5°C 100% 2.8 mph NNE4.5 kmh NNE 4.4 mph7.1 kmh 30.39 in1029.1 mb 0.00 in0.0 mm 0.00 in/hr0.0 mm/hr 0.05 in1.3 mm
03:21 PM 36.5°F2.5°C 36.5°F2.5°C 100% Calm Calm 3.2 mph5.1 kmh 30.39 in1029.1 mb 0.00 in0.0 mm 0.00 in/hr0.0 mm/hr 0.05 in1.3 mm
03:26 PM 36.7°F2.6°C 36.7°F2.6°C 100% 2.5 mph ENE4.0 kmh ENE 2.6 mph4.2 kmh 30.39 in1029.1 mb 0.00 in0.0 mm 0.00 in/hr0.0 mm/hr 0.05 in1.3 mm
03:31 PM 36.9°F2.7°C 36.9°F2.7°C 100% 2.4 mph ESE3.9 kmh ESE 2.6 mph4.2 kmh 30.36 in1028.1 mb 0.00 in0.0 mm 0.00 in/hr0.0 mm/hr 0.05 in1.3 mm
03:36 PM 36.9°F2.7°C 36.9°F2.7°C 100% Calm Calm 3.2 mph5.1 kmh 30.36 in1028.1 mb 0.00 in0.0 mm 0.00 in/hr0.0 mm/hr 0.05 in1.3 mm
03:41 PM 36.9°F2.7°C 36.9°F2.7°C 100% Calm Calm 3.2 mph5.1 kmh 30.36 in1028.1 mb 0.00 in0.0 mm 0.00 in/hr0.0 mm/hr 0.05 in1.3 mm
03:46 PM 36.9°F2.7°C 36.9°F2.7°C 100% Calm Calm -- 30.36 in1028.1 mb 0.00 in0.0 mm 0.00 in/hr0.0 mm/hr 0.05 in1.3 mm
03:51 PM 36.9°F2.7°C 36.9°F2.7°C 100% Calm Calm -- 30.36 in1028.1 mb 0.00 in0.0 mm 0.00 in/hr0.0 mm/hr 0.05 in1.3 mm
03:56 PM 36.7°F2.6°C 36.7°F2.6°C 100% Calm Calm -- 30.36 in1028.1 mb 0.00 in0.0 mm 0.00 in/hr0.0 mm/hr 0.05 in1.3 mm
04:01 PM 36.7°F2.6°C 36.7°F2.6°C 100% Calm Calm -- 30.36 in1028.1 mb 0.00 in0.0 mm 0.00 in/hr0.0 mm/hr 0.05 in1.3 mm
04:08 PM 36.9°F2.7°C 36.9°F2.7°C 100% Calm Calm -- 30.36 in1028.1 mb 0.00 in0.0 mm 0.00 in/hr0.0 mm/hr 0.05 in1.3 mm
04:13 PM 36.7°F2.6°C 36.7°F2.6°C 100% Calm Calm -- 30.36 in1028.1 mb 0.00 in0.0 mm 0.00 in/hr0.0 mm/hr 0.05 in1.3 mm
04:18 PM 36.9°F2.7°C 36.9°F2.7°C 100% Calm Calm -- 30.36 in1028.1 mb 0.00 in0.0 mm 0.00 in/hr0.0 mm/hr 0.05 in1.3 mm
04:23 PM 36.9°F2.7°C 36.9°F2.7°C 100% Calm Calm 2.6 mph4.2 kmh 30.36 in1028.1 mb 0.00 in0.0 mm 0.00 in/hr0.0 mm/hr 0.05 in1.3 mm
04:28 PM 37.0°F2.8°C 37.0°F2.8°C 100% Calm Calm 2.6 mph4.2 kmh 30.36 in1028.1 mb 0.00 in0.0 mm 0.00 in/hr0.0 mm/hr 0.05 in1.3 mm
04:33 PM 36.9°F2.7°C 36.9°F2.7°C 100% Calm Calm -- 30.36 in1028.1 mb 0.00 in0.0 mm 0.00 in/hr0.0 mm/hr 0.05 in1.3 mm
04:38 PM 36.9°F2.7°C 36.9°F2.7°C 100% Calm Calm -- 30.36 in1028.1 mb 0.00 in0.0 mm 0.00 in/hr0.0 mm/hr 0.05 in1.3 mm
04:43 PM 36.9°F2.7°C 36.9°F2.7°C 100% Calm Calm 2.2 mph3.5 kmh 30.36 in1028.1 mb 0.00 in0.0 mm 0.00 in/hr0.0 mm/hr 0.05 in1.3 mm
04:48 PM 36.9°F2.7°C 36.9°F2.7°C 100% Calm Calm 2.2 mph3.5 kmh 30.36 in1028.1 mb 0.00 in0.0 mm 0.00 in/hr0.0 mm/hr 0.05 in1.3 mm
04:53 PM 36.9°F2.7°C 36.9°F2.7°C 100% 2.8 mph SSE4.5 kmh SSE 3.2 mph5.1 kmh 30.36 in1028.1 mb 0.00 in0.0 mm 0.00 in/hr0.0 mm/hr 0.05 in1.3 mm
04:59 PM 36.7°F2.6°C 36.7°F2.6°C 100% 3.2 mph SSE5.1 kmh SSE 3.2 mph5.1 kmh 30.36 in1028.1 mb 0.00 in0.0 mm 0.00 in/hr0.0 mm/hr 0.05 in1.3 mm
05:04 PM 36.7°F2.6°C 36.7°F2.6°C 100% Calm Calm 3.2 mph5.1 kmh 30.36 in1028.1 mb 0.00 in0.0 mm 0.00 in/hr0.0 mm/hr 0.05 in1.3 mm
05:09 PM 36.7°F2.6°C 36.7°F2.6°C 100% Calm Calm -- 30.36 in1028.1 mb 0.00 in0.0 mm 0.00 in/hr0.0 mm/hr 0.05 in1.3 mm
05:14 PM 36.7°F2.6°C 36.7°F2.6°C 100% Calm Calm -- 30.36 in1028.1 mb 0.00 in0.0 mm 0.00 in/hr0.0 mm/hr 0.05 in1.3 mm
05:20 PM 36.7°F2.6°C 36.7°F2.6°C 100% Calm Calm -- 30.36 in1028.1 mb 0.00 in0.0 mm 0.00 in/hr0.0 mm/hr 0.05 in1.3 mm
05:25 PM 36.9°F2.7°C 36.9°F2.7°C 100% Calm Calm -- 30.36 in1028.1 mb 0.00 in0.0 mm 0.00 in/hr0.0 mm/hr 0.05 in1.3 mm
05:30 PM 37.0°F2.8°C 37.0°F2.8°C 100% Calm Calm -- 30.36 in1028.1 mb 0.00 in0.0 mm 0.00 in/hr0.0 mm/hr 0.05 in1.3 mm
05:35 PM 37.0°F2.8°C 37.0°F2.8°C 100% Calm Calm -- 30.36 in1028.1 mb 0.00 in0.0 mm 0.00 in/hr0.0 mm/hr 0.05 in1.3 mm
05:41 PM 37.2°F2.9°C 37.2°F2.9°C 100% Calm Calm -- 30.36 in1028.1 mb 0.00 in0.0 mm 0.00 in/hr0.0 mm/hr 0.05 in1.3 mm
05:46 PM 37.4°F3.0°C 37.4°F3.0°C 100% Calm Calm -- 30.36 in1028.1 mb 0.00 in0.0 mm 0.00 in/hr0.0 mm/hr 0.05 in1.3 mm
05:51 PM 37.2°F2.9°C 37.2°F2.9°C 100% Calm Calm -- 30.36 in1028.1 mb 0.00 in0.0 mm 0.00 in/hr0.0 mm/hr 0.05 in1.3 mm
05:56 PM 37.0°F2.8°C 37.0°F2.8°C 100% Calm Calm -- 30.36 in1028.1 mb 0.00 in0.0 mm 0.00 in/hr0.0 mm/hr 0.05 in1.3 mm
06:02 PM 36.9°F2.7°C 36.9°F2.7°C 100% Calm Calm 2.6 mph4.2 kmh 30.36 in1028.1 mb 0.00 in0.0 mm 0.00 in/hr0.0 mm/hr 0.05 in1.3 mm
06:07 PM 36.9°F2.7°C 36.9°F2.7°C 100% Calm Calm 2.6 mph4.2 kmh 30.36 in1028.1 mb 0.00 in0.0 mm 0.00 in/hr0.0 mm/hr 0.05 in1.3 mm
06:12 PM 36.9°F2.7°C 36.9°F2.7°C 100% 2.3 mph NNW3.7 kmh NNW 2.6 mph4.2 kmh 30.36 in1028.1 mb 0.00 in0.0 mm 0.00 in/hr0.0 mm/hr 0.05 in1.3 mm
06:17 PM 36.7°F2.6°C 36.7°F2.6°C 100% Calm Calm 2.6 mph4.2 kmh 30.39 in1029.1 mb 0.00 in0.0 mm 0.00 in/hr0.0 mm/hr 0.05 in1.3 mm
06:23 PM 36.7°F2.6°C 36.7°F2.6°C 100% Calm Calm -- 30.39 in1029.1 mb 0.00 in0.0 mm 0.00 in/hr0.0 mm/hr 0.05 in1.3 mm
06:28 PM 36.7°F2.6°C 36.7°F2.6°C 100% Calm Calm -- 30.39 in1029.1 mb 0.00 in0.0 mm 0.00 in/hr0.0 mm/hr 0.05 in1.3 mm
06:33 PM 36.5°F2.5°C 36.5°F2.5°C 100% Calm Calm -- 30.36 in1028.1 mb 0.00 in0.0 mm 0.00 in/hr0.0 mm/hr 0.05 in1.3 mm
06:38 PM 36.5°F2.5°C 36.5°F2.5°C 100% Calm Calm -- 30.36 in1028.1 mb 0.00 in0.0 mm 0.00 in/hr0.0 mm/hr 0.05 in1.3 mm
06:44 PM 36.5°F2.5°C 36.5°F2.5°C 100% Calm Calm -- 30.36 in1028.1 mb 0.00 in0.0 mm 0.00 in/hr0.0 mm/hr 0.05 in1.3 mm
06:49 PM 36.5°F2.5°C 36.5°F2.5°C 100% Calm Calm -- 30.36 in1028.1 mb 0.00 in0.0 mm 0.00 in/hr0.0 mm/hr 0.05 in1.3 mm
06:54 PM 36.3°F2.4°C 36.3°F2.4°C 100% Calm Calm -- 30.36 in1028.1 mb 0.00 in0.0 mm 0.00 in/hr0.0 mm/hr 0.05 in1.3 mm
06:59 PM 36.3°F2.4°C 36.3°F2.4°C 100% Calm Calm -- 30.36 in1028.1 mb 0.00 in0.0 mm 0.00 in/hr0.0 mm/hr 0.05 in1.3 mm
07:04 PM 36.3°F2.4°C 36.3°F2.4°C 100% Calm Calm -- 30.36 in1028.1 mb 0.00 in0.0 mm 0.00 in/hr0.0 mm/hr 0.05 in1.3 mm
07:09 PM 36.3°F2.4°C 36.3°F2.4°C 100% Calm Calm -- 30.36 in1028.1 mb 0.00 in0.0 mm 0.00 in/hr0.0 mm/hr 0.05 in1.3 mm
07:14 PM 36.3°F2.4°C 36.3°F2.4°C 100% Calm Calm -- 30.36 in1028.1 mb 0.00 in0.0 mm 0.00 in/hr0.0 mm/hr 0.05 in1.3 mm
07:19 PM 36.3°F2.4°C 36.3°F2.4°C 100% 3.2 mph SSE5.1 kmh SSE 4.0 mph6.4 kmh 30.36 in1028.1 mb 0.00 in0.0 mm 0.00 in/hr0.0 mm/hr 0.05 in1.3 mm
07:26 PM 36.3°F2.4°C 36.3°F2.4°C 100% Calm Calm 4.0 mph6.4 kmh 30.36 in1028.1 mb 0.00 in0.0 mm 0.00 in/hr0.0 mm/hr 0.05 in1.3 mm
07:31 PM 36.3°F2.4°C 36.3°F2.4°C 100% Calm Calm 2.2 mph3.5 kmh 30.36 in1028.1 mb 0.00 in0.0 mm 0.00 in/hr0.0 mm/hr 0.05 in1.3 mm
07:36 PM 36.3°F2.4°C 36.3°F2.4°C 100% Calm Calm -- 30.36 in1028.1 mb 0.00 in0.0 mm 0.00 in/hr0.0 mm/hr 0.05 in1.3 mm
07:41 PM 36.3°F2.4°C 36.3°F2.4°C 100% Calm Calm 2.6 mph4.2 kmh 30.36 in1028.1 mb 0.00 in0.0 mm 0.00 in/hr0.0 mm/hr 0.05 in1.3 mm
07:46 PM 36.3°F2.4°C 36.3°F2.4°C 100% Calm Calm 2.6 mph4.2 kmh 30.33 in1027.1 mb 0.00 in0.0 mm 0.00 in/hr0.0 mm/hr 0.05 in1.3 mm
07:51 PM 36.1°F2.3°C 36.1°F2.3°C 100% Calm Calm -- 30.33 in1027.1 mb 0.00 in0.0 mm 0.00 in/hr0.0 mm/hr 0.05 in1.3 mm
07:56 PM 36.1°F2.3°C 36.1°F2.3°C 100% Calm Calm -- 30.33 in1027.1 mb 0.00 in0.0 mm 0.00 in/hr0.0 mm/hr 0.05 in1.3 mm
08:02 PM 36.1°F2.3°C 36.1°F2.3°C 100% Calm Calm -- 30.36 in1028.1 mb 0.00 in0.0 mm 0.00 in/hr0.0 mm/hr 0.05 in1.3 mm
08:07 PM 36.1°F2.3°C 36.1°F2.3°C 100% Calm Calm 4.0 mph6.4 kmh 30.36 in1028.1 mb 0.00 in0.0 mm 0.00 in/hr0.0 mm/hr 0.05 in1.3 mm
08:12 PM 36.1°F2.3°C 36.1°F2.3°C 100% Calm Calm 4.0 mph6.4 kmh 30.36 in1028.1 mb 0.00 in0.0 mm 0.00 in/hr0.0 mm/hr 0.05 in1.3 mm
08:19 PM 36.1°F2.3°C 36.1°F2.3°C 100% Calm Calm 2.6 mph4.2 kmh 30.33 in1027.1 mb 0.00 in0.0 mm 0.00 in/hr0.0 mm/hr 0.05 in1.3 mm
08:24 PM 36.1°F2.3°C 36.1°F2.3°C 100% Calm Calm 2.6 mph4.2 kmh 30.33 in1027.1 mb 0.00 in0.0 mm 0.00 in/hr0.0 mm/hr 0.05 in1.3 mm
08:29 PM 36.1°F2.3°C 36.1°F2.3°C 100% Calm Calm -- 30.33 in1027.1 mb 0.00 in0.0 mm 0.00 in/hr0.0 mm/hr 0.05 in1.3 mm
08:34 PM 36.1°F2.3°C 36.1°F2.3°C 100% 2.2 mph S3.5 kmh S 2.6 mph4.2 kmh 30.33 in1027.1 mb 0.00 in0.0 mm 0.00 in/hr0.0 mm/hr 0.05 in1.3 mm
08:40 PM 36.1°F2.3°C 36.1°F2.3°C 100% Calm Calm 2.6 mph4.2 kmh 30.33 in1027.1 mb 0.00 in0.0 mm 0.00 in/hr0.0 mm/hr 0.05 in1.3 mm
08:45 PM 36.1°F2.3°C 36.1°F2.3°C 100% Calm Calm 2.6 mph4.2 kmh 30.36 in1028.1 mb 0.00 in0.0 mm 0.00 in/hr0.0 mm/hr 0.05 in1.3 mm
08:50 PM 36.1°F2.3°C 36.1°F2.3°C 100% Calm Calm -- 30.36 in1028.1 mb 0.00 in0.0 mm 0.00 in/hr0.0 mm/hr 0.05 in1.3 mm
08:55 PM 36.1°F2.3°C 36.1°F2.3°C 100% Calm Calm -- 30.36 in1028.1 mb 0.00 in0.0 mm 0.00 in/hr0.0 mm/hr 0.05 in1.3 mm
09:00 PM 36.1°F2.3°C 36.1°F2.3°C 100% Calm Calm -- 30.33 in1027.1 mb 0.00 in0.0 mm 0.00 in/hr0.0 mm/hr 0.05 in1.3 mm
09:05 PM 36.1°F2.3°C 36.1°F2.3°C 100% Calm Calm -- 30.33 in1027.1 mb 0.00 in0.0 mm 0.00 in/hr0.0 mm/hr 0.05 in1.3 mm
09:10 PM 36.1°F2.3°C 36.1°F2.3°C 100% Calm Calm -- 30.33 in1027.1 mb 0.00 in0.0 mm 0.00 in/hr0.0 mm/hr 0.05 in1.3 mm
09:16 PM 36.1°F2.3°C 36.1°F2.3°C 100% Calm Calm -- 30.33 in1027.1 mb 0.00 in0.0 mm 0.00 in/hr0.0 mm/hr 0.05 in1.3 mm
09:21 PM 36.1°F2.3°C 36.1°F2.3°C 100% Calm Calm -- 30.33 in1027.1 mb 0.00 in0.0 mm 0.00 in/hr0.0 mm/hr 0.05 in1.3 mm
09:26 PM 36.3°F2.4°C 36.3°F2.4°C 100% Calm Calm -- 30.33 in1027.1 mb 0.00 in0.0 mm 0.00 in/hr0.0 mm/hr 0.05 in1.3 mm
09:31 PM 36.3°F2.4°C 36.3°F2.4°C 100% Calm Calm -- 30.33 in1027.1 mb 0.00 in0.0 mm 0.00 in/hr0.0 mm/hr 0.05 in1.3 mm
09:36 PM 36.1°F2.3°C 36.1°F2.3°C 100% Calm Calm -- 30.33 in1027.1 mb 0.00 in0.0 mm 0.00 in/hr0.0 mm/hr 0.05 in1.3 mm
09:41 PM 36.3°F2.4°C 36.3°F2.4°C 100% Calm Calm -- 30.33 in1027.1 mb 0.00 in0.0 mm 0.00 in/hr0.0 mm/hr 0.05 in1.3 mm
09:46 PM 36.3°F2.4°C 36.3°F2.4°C 100% Calm Calm -- 30.33 in1027.1 mb 0.00 in0.0 mm 0.00 in/hr0.0 mm/hr 0.05 in1.3 mm
09:51 PM 36.3°F2.4°C 36.3°F2.4°C 100% Calm Calm -- 30.33 in1027.1 mb 0.00 in0.0 mm 0.00 in/hr0.0 mm/hr 0.05 in1.3 mm
09:56 PM 36.3°F2.4°C 36.3°F2.4°C 100% 3.1 mph S5.0 kmh S 4.0 mph6.4 kmh 30.33 in1027.1 mb 0.00 in0.0 mm 0.00 in/hr0.0 mm/hr 0.05 in1.3 mm
10:01 PM 36.5°F2.5°C 36.5°F2.5°C 100% 2.5 mph SSW4.0 kmh SSW 5.4 mph8.7 kmh 30.30 in1026.1 mb 0.00 in0.0 mm 0.00 in/hr0.0 mm/hr 0.05 in1.3 mm
10:06 PM 36.5°F2.5°C 36.5°F2.5°C 100% Calm Calm 5.4 mph8.7 kmh 30.30 in1026.1 mb 0.00 in0.0 mm 0.00 in/hr0.0 mm/hr 0.05 in1.3 mm
10:11 PM 36.3°F2.4°C 36.3°F2.4°C 100% Calm Calm 2.2 mph3.5 kmh 30.30 in1026.1 mb 0.00 in0.0 mm 0.00 in/hr0.0 mm/hr 0.05 in1.3 mm
10:16 PM 36.3°F2.4°C 36.3°F2.4°C 100% Calm Calm -- 30.30 in1026.1 mb 0.00 in0.0 mm 0.00 in/hr0.0 mm/hr 0.05 in1.3 mm
10:22 PM 36.5°F2.5°C 36.5°F2.5°C 100% Calm Calm -- 30.30 in1026.1 mb 0.00 in0.0 mm 0.00 in/hr0.0 mm/hr 0.05 in1.3 mm
10:27 PM 36.5°F2.5°C 36.5°F2.5°C 100% Calm Calm -- 30.30 in1026.1 mb 0.00 in0.0 mm 0.00 in/hr0.0 mm/hr 0.05 in1.3 mm
10:32 PM 36.7°F2.6°C 36.7°F2.6°C 100% Calm Calm -- 30.30 in1026.1 mb 0.00 in0.0 mm 0.00 in/hr0.0 mm/hr 0.05 in1.3 mm
10:37 PM 36.7°F2.6°C 36.7°F2.6°C 100% 2.2 mph ESE3.5 kmh ESE 2.2 mph3.5 kmh 30.30 in1026.1 mb 0.00 in0.0 mm 0.00 in/hr0.0 mm/hr 0.05 in1.3 mm
10:42 PM 36.7°F2.6°C 36.7°F2.6°C 100% Calm Calm 3.2 mph5.1 kmh 30.30 in1026.1 mb 0.00 in0.0 mm 0.00 in/hr0.0 mm/hr 0.05 in1.3 mm
10:47 PM 36.7°F2.6°C 36.7°F2.6°C 100% Calm Calm 3.2 mph5.1 kmh 30.27 in1025.1 mb 0.00 in0.0 mm 0.00 in/hr0.0 mm/hr 0.05 in1.3 mm
10:52 PM 36.7°F2.6°C 36.7°F2.6°C 100% Calm Calm -- 30.27 in1025.1 mb 0.00 in0.0 mm 0.00 in/hr0.0 mm/hr 0.05 in1.3 mm
10:57 PM 36.7°F2.6°C 36.7°F2.6°C 100% Calm Calm -- 30.27 in1025.1 mb 0.00 in0.0 mm 0.00 in/hr0.0 mm/hr 0.05 in1.3 mm
11:02 PM 36.9°F2.7°C 36.9°F2.7°C 100% 3.3 mph SW5.3 kmh SW 4.0 mph6.4 kmh 30.27 in1025.1 mb 0.00 in0.0 mm 0.00 in/hr0.0 mm/hr 0.05 in1.3 mm
11:07 PM 36.9°F2.7°C 36.9°F2.7°C 100% 2.4 mph W3.9 kmh W 4.0 mph6.4 kmh 30.27 in1025.1 mb 0.00 in0.0 mm 0.00 in/hr0.0 mm/hr 0.05 in1.3 mm
11:13 PM 36.9°F2.7°C 36.9°F2.7°C 100% Calm Calm 3.2 mph5.1 kmh 30.27 in1025.1 mb 0.00 in0.0 mm 0.00 in/hr0.0 mm/hr 0.05 in1.3 mm
11:18 PM 37.0°F2.8°C 37.0°F2.8°C 100% Calm Calm 2.2 mph3.5 kmh 30.27 in1025.1 mb 0.00 in0.0 mm 0.00 in/hr0.0 mm/hr 0.05 in1.3 mm
11:24 PM 37.0°F2.8°C 37.0°F2.8°C 100% Calm Calm -- 30.27 in1025.1 mb 0.00 in0.0 mm 0.00 in/hr0.0 mm/hr 0.05 in1.3 mm
11:29 PM 37.0°F2.8°C 37.0°F2.8°C 100% Calm Calm -- 30.30 in1026.1 mb 0.00 in0.0 mm 0.00 in/hr0.0 mm/hr 0.05 in1.3 mm
11:35 PM 37.0°F2.8°C 37.0°F2.8°C 100% Calm Calm -- 30.30 in1026.1 mb 0.00 in0.0 mm 0.00 in/hr0.0 mm/hr 0.05 in1.3 mm
11:40 PM 37.0°F2.8°C 37.0°F2.8°C 100% Calm Calm -- 30.30 in1026.1 mb 0.00 in0.0 mm 0.00 in/hr0.0 mm/hr 0.05 in1.3 mm
11:46 PM 37.0°F2.8°C 37.0°F2.8°C 100% Calm Calm -- 30.30 in1026.1 mb 0.00 in0.0 mm 0.00 in/hr0.0 mm/hr 0.05 in1.3 mm
11:51 PM 37.0°F2.8°C 37.0°F2.8°C 100% Calm Calm -- 30.30 in1026.1 mb 0.00 in0.0 mm 0.00 in/hr0.0 mm/hr 0.05 in1.3 mm
11:56 PM 37.0°F2.8°C 37.0°F2.8°C 100% Calm Calm -- 30.30 in1026.1 mb 0.00 in0.0 mm 0.00 in/hr0.0 mm/hr 0.05 in1.3 mm